Time;durP1;ratioP1;P1;durP2;ratioP2;P2;SDS_P1;SDS_P2;PMS_P1;PMS_P2;Temp;Humidity;BMP_temperature;BMP_pressure;BME280_temperature;BME280_humidity;BME280_pressure;Samples;Min_cycle;Max_cycle;Signal;HPM_P1;HPM_P2
2021/12/04 00:02:06;;;;;;;4.32;0.95;;;13.30;94.40;;;;;;5091137;28;20464;-65
2021/12/04 00:04:36;;;;;;;3.90;0.90;;;13.30;94.40;;;;;;5091952;28;20107;-65
2021/12/04 00:07:04;;;;;;;3.03;0.80;;;13.30;94.40;;;;;;5090303;28;20028;-65
2021/12/04 00:09:30;;;;;;;3.17;0.80;;;13.30;94.40;;;;;;5088365;28;20031;-65
2021/12/04 00:12:01;;;;;;;3.33;0.90;;;13.30;94.40;;;;;;5091754;28;20031;-65
2021/12/04 00:14:28;;;;;;;3.45;0.70;;;13.30;94.40;;;;;;5089612;28;20063;-65
2021/12/04 00:16:54;;;;;;;4.30;0.80;;;13.30;94.40;;;;;;5085649;28;20170;-65
2021/12/04 00:19:20;;;;;;;4.93;0.90;;;13.30;94.50;;;;;;5080816;28;20024;-65
2021/12/04 00:21:46;;;;;;;3.17;0.70;;;13.30;94.50;;;;;;5083928;28;20039;-65
2021/12/04 00:24:12;;;;;;;4.88;0.90;;;13.30;94.50;;;;;;5089840;28;20024;-65
2021/12/04 00:26:38;;;;;;;2.65;0.70;;;13.30;94.50;;;;;;5091833;28;20024;-65
2021/12/04 00:29:05;;;;;;;3.05;0.80;;;13.30;94.50;;;;;;5089094;28;20028;-65
2021/12/04 00:31:31;;;;;;;3.63;0.82;;;13.30;94.50;;;;;;5088006;28;20598;-65
2021/12/04 00:33:57;;;;;;;2.95;0.70;;;13.30;94.50;;;;;;5086327;28;20101;-65
2021/12/04 00:49:58;;;;;;;2.55;0.70;;;13.20;94.70;;;;;;5080242;28;20040;-65
2021/12/04 00:52:24;;;;;;;4.15;1.00;;;13.20;94.80;;;;;;5087374;28;20032;-65
2021/12/04 00:54:50;;;;;;;2.85;0.80;;;13.20;94.80;;;;;;5087553;28;20085;-65
2021/12/04 00:57:15;;;;;;;3.17;0.70;;;13.20;94.80;;;;;;5089495;28;20115;-65
2021/12/04 00:59:41;;;;;;;4.72;0.90;;;13.20;94.90;;;;;;5087945;28;20128;-65
2021/12/04 01:02:07;;;;;;;4.13;0.80;;;13.20;94.90;;;;;;5090430;28;20721;-65
2021/12/04 01:04:33;;;;;;;4.13;0.80;;;13.20;94.90;;;;;;5087557;28;20035;-65
2021/12/04 01:06:58;;;;;;;3.08;0.70;;;13.20;94.90;;;;;;5089143;28;20055;-65
2021/12/04 01:09:26;;;;;;;3.90;0.80;;;13.20;94.90;;;;;;5085173;28;20121;-66
2021/12/04 01:11:53;;;;;;;3.97;0.90;;;13.20;94.90;;;;;;5089265;28;20043;-65
2021/12/04 01:14:21;;;;;;;3.58;0.90;;;13.20;94.90;;;;;;5088905;28;20016;-65
2021/12/04 01:16:48;;;;;;;2.53;0.82;;;13.20;94.90;;;;;;5081100;28;20040;-65
2021/12/04 01:19:14;;;;;;;3.35;1.00;;;13.20;94.90;;;;;;5077207;28;20029;-65
2021/12/04 01:21:42;;;;;;;1.92;0.80;;;13.20;94.90;;;;;;5075977;28;20115;-65
2021/12/04 01:24:07;;;;;;;4.25;1.00;;;13.30;94.90;;;;;;5076962;28;20028;-65
2021/12/04 01:26:33;;;;;;;4.43;0.93;;;13.30;94.90;;;;;;5077784;28;20398;-65
2021/12/04 01:28:59;;;;;;;5.20;1.30;;;13.30;94.90;;;;;;5091264;28;20024;-65
2021/12/04 01:31:25;;;;;;;4.30;0.88;;;13.30;94.90;;;;;;5079425;28;20063;-65
2021/12/04 01:33:52;;;;;;;2.97;0.80;;;13.20;94.90;;;;;;5084032;28;20020;-65
2021/12/04 01:36:18;;;;;;;3.53;0.77;;;13.20;94.90;;;;;;5087593;28;20036;-65
2021/12/04 01:38:44;;;;;;;4.50;0.90;;;13.20;94.90;;;;;;5076790;28;20558;-65
2021/12/04 01:41:10;;;;;;;5.20;0.90;;;13.20;94.90;;;;;;5089743;28;20028;-65
2021/12/04 01:43:35;;;;;;;2.30;0.85;;;13.20;94.90;;;;;;5084102;28;20032;-65
2021/12/04 01:46:02;;;;;;;3.40;0.80;;;13.20;94.90;;;;;;5082904;28;20057;-65
2021/12/04 01:48:28;;;;;;;4.10;0.80;;;13.20;94.90;;;;;;5086679;28;20058;-65
2021/12/04 01:50:55;;;;;;;4.50;1.00;;;13.30;95.00;;;;;;5085527;28;20020;-65
2021/12/04 01:53:21;;;;;;;4.20;0.90;;;13.30;95.00;;;;;;5076705;28;20406;-66
2021/12/04 01:55:46;;;;;;;4.88;0.98;;;13.30;95.30;;;;;;5088754;28;20399;-66
2021/12/04 01:58:13;;;;;;;4.35;0.90;;;13.20;94.90;;;;;;5080495;28;20031;-65
2021/12/04 02:00:41;;;;;;;4.03;0.98;;;13.30;94.90;;;;;;5082215;28;20035;-65
2021/12/04 02:03:09;;;;;;;4.10;0.82;;;13.20;94.90;;;;;;5087072;28;20111;-65
2021/12/04 02:05:38;;;;;;;3.65;0.88;;;13.20;94.90;;;;;;5087334;28;20108;-65
2021/12/04 02:08:08;;;;;;;3.53;0.90;;;13.20;94.90;;;;;;5090893;28;20028;-65
2021/12/04 02:10:35;;;;;;;6.22;0.90;;;13.20;94.90;;;;;;5084446;28;20060;-65
2021/12/04 02:13:02;;;;;;;3.85;0.80;;;13.20;94.90;;;;;;5085967;28;20454;-65
2021/12/04 02:15:28;;;;;;;2.55;0.80;;;13.20;95.00;;;;;;5085744;28;20505;-65
2021/12/04 02:17:54;;;;;;;4.53;0.75;;;13.20;95.00;;;;;;5081689;28;20047;-66
2021/12/04 02:20:23;;;;;;;3.88;0.82;;;13.20;95.00;;;;;;5090041;28;20031;-65
2021/12/04 02:22:49;;;;;;;4.00;0.90;;;13.20;95.00;;;;;;5091312;28;20024;-65
2021/12/04 02:25:16;;;;;;;5.38;0.90;;;13.20;95.10;;;;;;5088910;28;20525;-65
2021/12/04 02:27:42;;;;;;;4.53;0.80;;;13.20;95.10;;;;;;5084341;28;20090;-65
2021/12/04 02:30:12;;;;;;;4.22;0.93;;;13.20;95.10;;;;;;5079145;28;20032;-65
2021/12/04 02:32:38;;;;;;;2.47;0.67;;;13.20;95.10;;;;;;5087800;28;20036;-65
2021/12/04 02:35:06;;;;;;;4.55;0.85;;;13.10;95.00;;;;;;5090161;28;20024;-65
2021/12/04 02:37:33;;;;;;;4.93;0.80;;;13.20;95.10;;;;;;5077143;28;20075;-64
2021/12/04 02:40:00;;;;;;;6.07;0.88;;;13.10;95.10;;;;;;5079301;28;20044;-64
2021/12/04 02:42:30;;;;;;;3.67;0.70;;;13.20;95.10;;;;;;5085853;28;20050;-64
2021/12/04 02:44:57;;;;;;;2.63;0.80;;;13.20;95.10;;;;;;5080329;28;20059;-64
2021/12/04 02:47:23;;;;;;;2.47;0.80;;;13.20;95.10;;;;;;5085969;28;20032;-64
2021/12/04 02:49:49;;;;;;;5.07;0.82;;;13.20;95.10;;;;;;5088405;28;20406;-64
2021/12/04 02:52:16;;;;;;;5.13;0.80;;;13.20;95.10;;;;;;5079474;28;20024;-64
2021/12/04 02:54:42;;;;;;;1.88;0.80;;;13.20;95.10;;;;;;5080429;28;20024;-64
2021/12/04 02:57:11;;;;;;;4.18;0.73;;;13.20;95.10;;;;;;5087314;28;20039;-64
2021/12/04 02:59:38;;;;;;;6.68;0.80;;;13.20;95.10;;;;;;5087879;28;20530;-64
2021/12/04 03:02:22;;;;;;;2.28;0.60;;;13.20;95.00;;;;;;5078490;28;20477;-64
2021/12/04 03:04:51;;;;;;;4.53;0.70;;;13.20;95.00;;;;;;5087845;28;20552;-64
2021/12/04 03:07:18;;;;;;;2.92;0.77;;;13.20;95.00;;;;;;5086527;28;20031;-64
2021/12/04 03:09:44;;;;;;;4.28;0.80;;;13.20;94.90;;;;;;5083058;28;20013;-64
2021/12/04 03:12:11;;;;;;;2.88;0.80;;;13.20;95.00;;;;;;5077854;28;20395;-64
2021/12/04 03:14:37;;;;;;;3.58;0.73;;;13.20;95.00;;;;;;5087782;28;20090;-64
2021/12/04 03:17:03;;;;;;;1.13;0.70;;;13.20;94.90;;;;;;5084851;28;20043;-64
2021/12/04 03:19:29;;;;;;;2.67;0.70;;;13.20;94.90;;;;;;5086990;28;20425;-64
2021/12/04 03:21:56;;;;;;;2.00;0.70;;;13.10;94.90;;;;;;5081573;28;20032;-64
2021/12/04 03:24:23;;;;;;;2.20;0.80;;;13.10;94.80;;;;;;5085549;28;20390;-64
2021/12/04 03:26:50;;;;;;;2.50;0.70;;;13.10;94.80;;;;;;5088839;28;20799;-64
2021/12/04 03:29:19;;;;;;;1.33;0.60;;;13.10;94.80;;;;;;5077503;28;20495;-64
2021/12/04 03:42:27;;;;;;;3.70;0.90;;;12.90;94.90;;;;;;5083823;28;20055;-64
2021/12/04 03:44:53;;;;;;;3.25;0.90;;;12.90;94.90;;;;;;5086501;28;20037;-64
2021/12/04 03:47:20;;;;;;;2.22;0.70;;;12.80;94.90;;;;;;5073608;28;20036;-64
2021/12/04 03:49:47;;;;;;;2.10;0.82;;;12.90;95.00;;;;;;5087811;28;20076;-64
2021/12/04 03:52:13;;;;;;;3.85;1.00;;;12.80;94.90;;;;;;5078823;28;20391;-64
2021/12/04 03:54:39;;;;;;;4.03;0.90;;;12.80;94.90;;;;;;5086062;28;20016;-64
2021/12/04 03:57:06;;;;;;;3.17;0.73;;;12.70;94.90;;;;;;5084660;28;20075;-64
2021/12/04 03:59:36;;;;;;;1.77;0.80;;;12.70;95.00;;;;;;5087428;28;20032;-64
2021/12/04 04:02:04;;;;;;;4.13;0.93;;;12.70;95.10;;;;;;5088715;28;20036;-64
2021/12/04 04:04:30;;;;;;;2.25;0.70;;;12.70;95.10;;;;;;5085072;28;20059;-64
2021/12/04 04:06:58;;;;;;;3.05;0.70;;;12.70;95.10;;;;;;5086852;28;20031;-65
2021/12/04 04:09:24;;;;;;;5.00;0.80;;;12.80;95.20;;;;;;5089659;28;20058;-64
2021/12/04 04:11:50;;;;;;;2.55;0.60;;;12.80;95.10;;;;;;5082401;28;20025;-64
2021/12/04 04:14:16;;;;;;;3.72;0.88;;;12.80;95.10;;;;;;5092908;28;20032;-64
2021/12/04 04:16:41;;;;;;;4.38;0.70;;;12.80;95.00;;;;;;5088410;28;20040;-64
2021/12/04 04:19:09;;;;;;;3.75;0.70;;;12.80;94.90;;;;;;5089421;28;20077;-64
2021/12/04 04:21:39;;;;;;;3.33;0.80;;;12.80;94.70;;;;;;5087191;28;20097;-64
2021/12/04 04:24:06;;;;;;;2.15;0.60;;;12.80;94.70;;;;;;5082712;28;20047;-64
2021/12/04 04:26:33;;;;;;;4.45;0.93;;;12.80;94.50;;;;;;5075842;28;20035;-64
2021/12/04 04:28:58;;;;;;;4.88;0.80;;;12.80;94.50;;;;;;5091451;28;20398;-64
2021/12/04 04:31:24;;;;;;;4.57;0.75;;;12.80;94.40;;;;;;5084824;28;20028;-64
2021/12/04 04:33:50;;;;;;;4.20;0.88;;;12.70;94.30;;;;;;5079949;28;20530;-64
2021/12/04 04:39:25;;;;;;;1.58;0.55;;;12.70;94.10;;;;;;5076856;28;20044;-64
2021/12/04 05:01:31;;;;;;;4.32;0.60;;;12.70;93.30;;;;;;5028880;28;20396;-64
2021/12/04 05:12:18;;;;;;;2.65;0.40;;;12.50;92.70;;;;;;5029443;28;20064;-64
2021/12/04 05:14:46;;;;;;;4.00;0.40;;;12.40;92.60;;;;;;5028780;28;20060;-64
2021/12/04 05:17:27;;;;;;;4.88;0.70;;;12.30;92.50;;;;;;5010417;28;20128;-64
2021/12/04 05:19:53;;;;;;;3.58;0.50;;;12.20;92.20;;;;;;5029699;28;20672;-64
2021/12/04 05:22:20;;;;;;;2.88;0.50;;;12.10;91.90;;;;;;5028614;28;20111;-64
2021/12/04 05:24:46;;;;;;;3.65;0.50;;;12.00;91.90;;;;;;5075423;28;20029;-64
2021/12/04 05:27:12;;;;;;;7.90;0.60;;;11.90;91.80;;;;;;5088383;28;20107;-64
2021/12/04 05:29:38;;;;;;;4.95;0.77;;;11.90;91.40;;;;;;5092346;28;20023;-64
2021/12/04 05:32:05;;;;;;;7.25;0.88;;;11.80;90.80;;;;;;5089853;28;20670;-64
2021/12/04 05:34:32;;;;;;;5.68;0.82;;;11.80;90.50;;;;;;5087637;28;20399;-64
2021/12/04 05:36:58;;;;;;;8.45;0.80;;;11.70;90.20;;;;;;5089550;28;20445;-64
2021/12/04 05:39:24;;;;;;;4.07;0.70;;;11.60;90.10;;;;;;5088103;28;20107;-64
2021/12/04 05:41:51;;;;;;;5.30;0.70;;;11.50;90.30;;;;;;5088562;28;20031;-64
2021/12/04 05:44:20;;;;;;;6.55;0.63;;;11.40;90.10;;;;;;5090861;28;20091;-64
2021/12/04 05:46:53;;;;;;;6.90;1.10;;;11.20;90.00;;;;;;5088683;28;20530;-64
2021/12/04 05:49:24;;;;;;;7.18;0.85;;;11.10;90.20;;;;;;5083822;28;20546;-64
2021/12/04 05:56:56;;;;;;;5.20;1.08;;;10.90;90.20;;;;;;5082280;28;20486;-64
2021/12/04 05:59:22;;;;;;;8.57;0.82;;;10.80;90.00;;;;;;5082371;28;20052;-64
2021/12/04 06:01:49;;;;;;;9.25;0.98;;;10.70;90.20;;;;;;5089013;28;20028;-64
2021/12/04 06:04:14;;;;;;;8.07;1.00;;;10.70;90.20;;;;;;5086562;28;20050;-64
2021/12/04 06:06:40;;;;;;;11.40;1.25;;;10.60;90.10;;;;;;5084584;28;20562;-64
2021/12/04 06:09:06;;;;;;;5.80;0.85;;;10.50;90.20;;;;;;5074683;28;20074;-64
2021/12/04 06:11:33;;;;;;;11.02;1.42;;;10.50;90.30;;;;;;5089503;28;20032;-63
2021/12/04 06:13:59;;;;;;;11.32;1.15;;;10.50;90.40;;;;;;5091295;28;20042;-64
2021/12/04 06:16:25;;;;;;;8.40;1.20;;;10.40;90.50;;;;;;5085125;28;20537;-63
2021/12/04 06:18:54;;;;;;;9.07;1.17;;;10.40;90.70;;;;;;5088255;28;20035;-64
2021/12/04 06:24:08;;;;;;;11.15;1.40;;;10.30;90.90;;;;;;5077826;28;20039;-64
2021/12/04 06:26:36;;;;;;;9.40;1.40;;;10.30;91.00;;;;;;5086823;28;20024;-64
2021/12/04 06:29:03;;;;;;;6.55;0.98;;;10.20;91.20;;;;;;5086204;28;20028;-64
2021/12/04 06:31:31;;;;;;;8.98;1.35;;;10.20;91.50;;;;;;5088166;28;20032;-64
2021/12/04 06:33:57;;;;;;;10.65;1.50;;;10.20;91.70;;;;;;5084109;28;20028;-64
2021/12/04 06:36:24;;;;;;;10.75;1.85;;;10.20;91.90;;;;;;5088011;28;20110;-64
2021/12/04 06:38:51;;;;;;;10.82;1.40;;;10.20;91.80;;;;;;5081650;28;20051;-64
2021/12/04 06:41:17;;;;;;;15.27;1.48;;;10.20;91.70;;;;;;5102204;28;20050;-64
2021/12/04 06:43:50;;;;;;;11.27;1.25;;;10.20;91.70;;;;;;5087344;28;20027;-66
2021/12/04 06:46:19;;;;;;;11.15;1.38;;;10.10;91.50;;;;;;5085708;28;20086;-64
2021/12/04 06:53:47;;;;;;;12.88;1.40;;;10.10;91.20;;;;;;5094670;28;20399;-64
2021/12/04 06:56:15;;;;;;;10.02;1.17;;;10.00;91.20;;;;;;5095140;28;20039;-64
2021/12/04 06:58:41;;;;;;;10.40;1.65;;;10.00;91.10;;;;;;5082919;28;20085;-64
2021/12/04 07:01:10;;;;;;;11.88;1.70;;;10.10;91.20;;;;;;5089939;28;20403;-64
2021/12/04 07:03:36;;;;;;;10.07;1.55;;;10.10;91.30;;;;;;5097012;28;20035;-64
2021/12/04 07:06:02;;;;;;;12.48;1.52;;;10.00;91.30;;;;;;5102179;28;20020;-64
2021/12/04 07:08:33;;;;;;;21.60;1.73;;;10.10;91.10;;;;;;5088576;28;20024;-63
2021/12/04 07:11:05;;;;;;;13.15;1.52;;;10.10;91.00;;;;;;5072642;28;20441;-64
2021/12/04 07:13:33;;;;;;;13.68;1.60;;;10.10;91.00;;;;;;5080593;28;20052;-64
2021/12/04 07:16:16;;;;;;;11.07;1.70;;;10.20;90.60;;;;;;5081497;28;20510;-64
2021/12/04 07:18:45;;;;;;;9.55;1.02;;;10.20;90.40;;;;;;5076431;28;20048;-64
2021/12/04 07:21:13;;;;;;;13.13;1.45;;;10.20;90.30;;;;;;5089108;28;20022;-64
2021/12/04 07:23:41;;;;;;;13.00;1.75;;;10.20;90.40;;;;;;5081141;28;20106;-64
2021/12/04 07:26:17;;;;;;;9.80;1.70;;;10.20;90.40;;;;;;5086405;28;20409;-64
2021/12/04 07:28:45;;;;;;;10.48;2.17;;;10.20;90.50;;;;;;5092305;28;20070;-65
2021/12/04 07:31:11;;;;;;;10.40;1.50;;;10.20;90.40;;;;;;5083566;28;20024;-65
2021/12/04 07:33:37;;;;;;;19.23;1.73;;;10.20;90.50;;;;;;5087790;28;20031;-64
2021/12/04 07:36:03;;;;;;;13.38;1.58;;;10.10;90.60;;;;;;5086717;28;20025;-64
2021/12/04 07:38:29;;;;;;;12.43;1.40;;;10.10;90.70;;;;;;5082344;28;20052;-64
2021/12/04 07:40:56;;;;;;;12.07;1.70;;;10.10;90.70;;;;;;5087232;28;20020;-64
2021/12/04 07:43:22;;;;;;;10.27;1.70;;;10.00;90.70;;;;;;5089359;28;20403;-64
2021/12/04 07:45:47;;;;;;;13.32;1.50;;;10.00;90.80;;;;;;5089698;28;20051;-64
2021/12/04 07:48:13;;;;;;;14.05;1.58;;;10.00;90.80;;;;;;5087410;28;20471;-64
2021/12/04 07:50:41;;;;;;;10.73;1.40;;;9.90;90.80;;;;;;5092798;28;20043;-64
2021/12/04 07:53:13;;;;;;;11.73;1.85;;;9.90;90.80;;;;;;5103304;28;20451;-64
2021/12/04 07:55:42;;;;;;;9.20;1.27;;;9.90;90.80;;;;;;5091746;28;20522;-64
2021/12/04 07:58:16;;;;;;;13.55;1.70;;;9.90;90.90;;;;;;5089600;28;20111;-64
2021/12/04 08:00:43;;;;;;;12.23;1.60;;;9.90;90.90;;;;;;5085723;28;20062;-64
2021/12/04 08:03:16;;;;;;;7.70;1.10;;;10.00;91.00;;;;;;5090263;28;20035;-64
2021/12/04 08:05:46;;;;;;;12.10;1.48;;;10.00;90.90;;;;;;5074709;28;20471;-64
2021/12/04 08:08:14;;;;;;;12.35;1.20;;;10.10;90.70;;;;;;5094203;28;20039;-64
2021/12/04 08:10:44;;;;;;;12.25;1.55;;;10.20;90.70;;;;;;5089997;28;20077;-63
2021/12/04 08:13:09;;;;;;;10.25;1.50;;;10.30;90.70;;;;;;5089733;28;20028;-64
2021/12/04 08:15:37;;;;;;;11.23;1.40;;;10.30;90.40;;;;;;5090070;28;20028;-65
2021/12/04 08:18:04;;;;;;;7.63;0.93;;;10.40;90.10;;;;;;5088534;28;20056;-64
2021/12/04 08:20:30;;;;;;;11.10;1.35;;;10.40;89.20;;;;;;5095615;28;20032;-64
2021/12/04 08:22:56;;;;;;;6.25;1.10;;;10.40;88.50;;;;;;5086592;28;20042;-64
2021/12/04 08:25:22;;;;;;;7.95;1.08;;;10.40;88.30;;;;;;5091559;28;20016;-64
2021/12/04 08:27:53;;;;;;;7.57;1.10;;;10.40;88.70;;;;;;5095718;28;20062;-65
2021/12/04 08:30:24;;;;;;;5.93;0.93;;;10.40;88.80;;;;;;5085772;28;20020;-65
2021/12/04 08:32:53;;;;;;;8.93;1.05;;;10.40;89.10;;;;;;5097372;28;20089;-66
2021/12/04 08:35:23;;;;;;;7.47;1.00;;;10.50;89.30;;;;;;5092163;28;20451;-66
2021/12/04 08:37:50;;;;;;;12.73;1.30;;;10.60;89.20;;;;;;5094551;28;20044;-66
2021/12/04 08:40:16;;;;;;;10.88;1.52;;;10.70;89.00;;;;;;5093384;28;20050;-67
2021/12/04 08:42:45;;;;;;;12.88;2.00;;;10.70;89.10;;;;;;5088996;28;20471;-66
2021/12/04 08:45:12;;;;;;;16.00;3.47;;;10.80;88.60;;;;;;5089024;28;20035;-66
2021/12/04 08:47:38;;;;;;;11.07;1.50;;;10.80;88.50;;;;;;5090707;28;20099;-66
2021/12/04 08:50:16;;;;;;;9.80;1.42;;;10.90;88.10;;;;;;5098036;28;20107;-65
2021/12/04 08:52:43;;;;;;;8.82;1.40;;;11.10;87.10;;;;;;5086195;28;20043;-66
2021/12/04 08:55:10;;;;;;;10.82;1.45;;;11.30;86.40;;;;;;5082431;28;20052;-65
2021/12/04 08:57:36;;;;;;;10.00;1.52;;;11.40;85.80;;;;;;5083789;28;20040;-65
2021/12/04 09:00:06;;;;;;;11.45;1.80;;;11.50;84.90;;;;;;5089157;28;20042;-65
2021/12/04 09:02:33;;;;;;;9.10;1.33;;;11.60;84.30;;;;;;5074704;28;20029;-65
2021/12/04 09:04:59;;;;;;;9.02;1.02;;;11.70;83.90;;;;;;5077280;28;20033;-65
2021/12/04 09:07:25;;;;;;;12.38;1.40;;;11.50;83.80;;;;;;5086240;28;20024;-65
2021/12/04 09:09:55;;;;;;;6.88;1.40;;;11.30;83.60;;;;;;5088065;28;20027;-65
2021/12/04 09:12:23;;;;;;;13.07;1.70;;;11.20;84.60;;;;;;5088467;28;20471;-65
2021/12/04 09:14:49;;;;;;;6.80;1.20;;;11.10;84.60;;;;;;5078762;28;20021;-65
2021/12/04 09:17:18;;;;;;;6.82;1.30;;;11.00;84.70;;;;;;5084455;28;20042;-66
2021/12/04 09:19:44;;;;;;;8.68;1.35;;;11.00;84.60;;;;;;5091333;28;20055;-67
2021/12/04 09:22:24;;;;;;;7.22;1.15;;;11.00;84.20;;;;;;5089848;28;20024;-67
2021/12/04 09:24:54;;;;;;;6.72;0.90;;;11.00;83.20;;;;;;5093135;28;20111;-68
2021/12/04 09:35:43;;;;;;;4.13;0.60;;;11.00;82.30;;;;;;5095728;28;20085;-67
2021/12/04 10:13:27;;;;;;;6.38;0.80;;;9.80;81.40;;;;;;5078774;28;20097;-67
2021/12/04 10:18:48;;;;;;;5.43;0.95;;;9.70;81.90;;;;;;5084980;28;20039;-66
2021/12/04 10:34:48;;;;;;;4.45;0.82;;;9.50;83.90;;;;;;5087729;28;20097;-66
2021/12/04 10:37:24;;;;;;;5.18;1.15;;;9.60;83.70;;;;;;5085268;28;20579;-67
2021/12/04 10:39:55;;;;;;;4.97;0.90;;;9.70;82.40;;;;;;5087397;28;20039;-66
2021/12/04 10:42:26;;;;;;;6.25;1.10;;;9.80;82.90;;;;;;5089377;28;20518;-65
2021/12/04 10:44:53;;;;;;;;;;;9.90;82.80;;;;;;5086882;28;20040;-65
2021/12/04 10:47:25;;;;;;;7.90;1.20;;;10.00;82.90;;;;;;5090153;28;20699;-65
2021/12/04 10:55:16;;;;;;;5.32;1.05;;;11.90;76.50;;;;;;5087998;28;20050;-65
2021/12/04 11:03:16;;;;;;;9.60;6.63;;;11.80;75.50;;;;;;5094641;28;20079;-65
2021/12/04 11:06:37;;;;;;;4.82;2.17;;;11.60;74.80;;;;;;5079454;28;20086;-65
2021/12/04 11:28:14;;;;;;;10.20;5.13;;;11.10;74.60;;;;;;5084166;28;20518;-66
2021/12/04 11:36:35;;;;;;;20.10;10.75;;;10.80;75.20;;;;;;5087212;28;20031;-66
2021/12/04 11:41:43;;;;;;;47.13;33.00;;;11.30;74.10;;;;;;5080211;28;19904;-67
2021/12/04 11:44:22;;;;;;;26.63;17.17;;;11.40;73.70;;;;;;5094930;28;20028;-67
2021/12/04 11:46:54;;;;;;;15.93;10.38;;;11.40;74.80;;;;;;5084954;28;20051;-66
2021/12/04 11:49:25;;;;;;;18.48;11.93;;;11.40;73.70;;;;;;5082517;28;20024;-65
2021/12/04 11:51:58;;;;;;;14.85;7.50;;;11.30;73.70;;;;;;5083374;28;20117;-65
2021/12/04 11:54:44;;;;;;;10.52;6.07;;;11.20;74.70;;;;;;5082097;28;20032;-66
2021/12/04 11:57:12;;;;;;;9.60;4.80;;;11.10;74.30;;;;;;5085391;28;20032;-66
2021/12/04 11:59:40;;;;;;;8.02;4.72;;;11.00;74.40;;;;;;5095752;28;20020;-66
2021/12/04 12:02:09;;;;;;;16.15;10.50;;;10.80;73.40;;;;;;5096160;28;20035;-66
2021/12/04 12:04:40;;;;;;;8.02;4.63;;;10.70;74.20;;;;;;5087060;28;20028;-67
2021/12/04 12:07:19;;;;;;;14.85;6.30;;;10.70;75.60;;;;;;5090579;28;20031;-67
2021/12/04 12:09:47;;;;;;;7.38;3.05;;;11.00;74.70;;;;;;5091618;28;20020;-67
2021/12/04 12:12:16;;;;;;;29.10;11.70;;;11.70;73.80;;;;;;5088174;28;20510;-67
2021/12/04 12:14:51;;;;;;;10.77;5.22;;;14.50;65.60;;;;;;5086957;28;20430;-67
2021/12/04 12:17:30;;;;;;;139.30;76.22;;;15.20;62.90;;;;;;5087726;28;20039;-67
2021/12/04 12:19:56;;;;;;;56.28;45.85;;;17.20;58.90;;;;;;5090958;28;20383;-67
2021/12/04 12:22:38;;;;;;;20.77;13.43;;;18.00;52.90;;;;;;5087978;28;20028;-67
2021/12/04 12:25:26;;;;;;;14.68;8.73;;;16.70;54.40;;;;;;5079527;28;20503;-67
2021/12/04 12:33:54;;;;;;;18.85;10.10;;;14.30;60.60;;;;;;5076263;28;20032;-67
2021/12/04 12:36:23;;;;;;;13.82;6.15;;;14.60;60.10;;;;;;5079335;28;20097;-67
2021/12/04 12:38:58;;;;;;;10.63;4.28;;;14.70;59.80;;;;;;5093580;28;20390;-67
2021/12/04 12:41:35;;;;;;;9.43;2.50;;;14.70;60.10;;;;;;5075283;28;20021;-67
2021/12/04 12:44:15;;;;;;;25.80;16.88;;;14.80;61.80;;;;;;5086190;28;20510;-67
2021/12/04 12:46:51;;;;;;;21.23;13.43;;;14.90;62.30;;;;;;5074864;28;20047;-67
2021/12/04 12:49:17;;;;;;;24.95;17.85;;;15.20;58.40;;;;;;5077437;28;20115;-67
2021/12/04 12:51:51;;;;;;;8.88;3.63;;;15.10;58.20;;;;;;5079855;28;20185;-66
2021/12/04 12:54:25;;;;;;;20.45;11.02;;;14.70;58.80;;;;;;5077019;28;20110;-67
2021/12/04 12:56:59;;;;;;;9.43;3.55;;;14.20;59.30;;;;;;5083049;28;20097;-67
2021/12/04 12:59:56;;;;;;;12.88;7.07;;;14.00;58.40;;;;;;5098073;28;20039;-67
2021/12/04 13:11:47;;;;;;;16.60;8.52;;;18.20;52.20;;;;;;5090623;28;20039;-68
2021/12/04 13:14:16;;;;;;;20.30;11.00;;;17.20;54.00;;;;;;5083876;28;20059;-68
2021/12/04 13:16:48;;;;;;;15.32;9.18;;;17.90;54.40;;;;;;5081490;28;20502;-68
2021/12/04 13:19:18;;;;;;;8.48;3.55;;;18.00;52.70;;;;;;5087159;28;20027;-68
2021/12/04 13:21:47;;;;;;;18.00;10.30;;;17.60;54.80;;;;;;5076187;28;20040;-68
2021/12/04 13:24:13;;;;;;;19.83;9.57;;;17.80;55.90;;;;;;5084621;28;20037;-68
2021/12/04 13:26:43;;;;;;;16.10;8.52;;;20.40;52.20;;;;;;5084784;28;20024;-69
2021/12/04 13:29:12;;;;;;;9.18;4.03;;;22.10;48.80;;;;;;5086721;28;20031;-69
2021/12/04 13:31:38;;;;;;;11.82;4.03;;;23.60;46.30;;;;;;5080751;28;20072;-70
2021/12/04 13:34:09;;;;;;;17.33;8.85;;;24.60;44.20;;;;;;5083460;28;20020;-70
2021/12/04 13:36:35;;;;;;;;;;;25.60;41.60;;;;;;5082171;28;20023;-67
2021/12/04 13:39:08;;;;;;;13.85;5.65;;;26.20;41.00;;;;;;5084654;28;19909;-68
2021/12/04 13:41:36;;;;;;;91.03;51.50;;;26.90;39.30;;;;;;5072086;28;20027;-68
2021/12/04 13:44:05;;;;;;;12.60;3.90;;;26.00;38.30;;;;;;5097758;28;20028;-68
2021/12/04 13:46:39;;;;;;;10.50;1.95;;;25.30;40.00;;;;;;5076534;28;20039;-67
2021/12/04 13:49:06;;;;;;;11.27;3.20;;;24.20;41.70;;;;;;5085584;28;20028;-68
2021/12/04 13:51:31;;;;;;;9.13;2.63;;;24.80;42.80;;;;;;5086828;28;20024;-67
2021/12/04 13:53:57;;;;;;;8.77;1.60;;;23.30;42.20;;;;;;5093186;27;20247;-67
2021/12/04 13:56:23;;;;;;;9.02;1.70;;;22.60;43.90;;;;;;5091647;28;20024;-67
2021/12/04 13:58:55;;;;;;;9.32;2.33;;;21.20;45.00;;;;;;5086265;28;20034;-67
2021/12/04 14:01:39;;;;;;;8.23;2.10;;;20.70;46.70;;;;;;5096816;28;20023;-68
2021/12/04 14:04:07;;;;;;;8.15;1.60;;;19.50;47.10;;;;;;5089344;28;20042;-66
2021/12/04 14:06:33;;;;;;;8.70;2.10;;;18.40;49.20;;;;;;5088095;28;20197;-66
2021/12/04 14:09:04;;;;;;;56.35;31.67;;;17.40;51.60;;;;;;5094909;28;20509;-66
2021/12/04 14:11:35;;;;;;;13.52;3.00;;;16.60;49.80;;;;;;5089438;28;20400;-65
2021/12/04 14:14:13;;;;;;;8.80;3.20;;;15.70;50.90;;;;;;5086957;28;20090;-66
2021/12/04 14:16:40;;;;;;;7.10;2.67;;;14.90;55.90;;;;;;5082993;28;20101;-65
2021/12/04 14:19:20;;;;;;;10.57;5.18;;;14.30;54.20;;;;;;5086625;28;20034;-66
2021/12/04 14:22:02;;;;;;;17.60;11.60;;;13.50;56.50;;;;;;5085727;28;20471;-65
2021/12/04 14:24:42;;;;;;;30.02;21.80;;;12.90;59.20;;;;;;5088599;28;20099;-65
2021/12/04 14:27:10;;;;;;;9.70;5.97;;;12.40;60.70;;;;;;5073052;28;20050;-65
2021/12/04 14:29:39;;;;;;;14.15;9.40;;;12.00;61.90;;;;;;5087500;28;20028;-65
2021/12/04 14:32:06;;;;;;;15.85;11.27;;;12.90;62.10;;;;;;5073710;28;20017;-65
2021/12/04 14:34:32;;;;;;;24.30;18.95;;;14.70;56.20;;;;;;5082883;28;20036;-66
2021/12/04 14:37:03;;;;;;;6.18;3.40;;;16.00;52.10;;;;;;5083830;28;20032;-66
2021/12/04 14:39:30;;;;;;;11.35;7.10;;;16.90;50.60;;;;;;5084271;28;20040;-66
2021/12/04 14:41:56;;;;;;;4.43;2.25;;;17.60;49.90;;;;;;5087747;28;20032;-66
2021/12/04 14:44:23;;;;;;;3.70;1.58;;;18.10;48.80;;;;;;5087148;28;20024;-66
2021/12/04 14:46:49;;;;;;;7.03;3.67;;;17.30;48.40;;;;;;5082879;28;20055;-66
2021/12/04 14:49:15;;;;;;;8.82;5.18;;;16.80;47.80;;;;;;5079028;28;20375;-66
2021/12/04 14:51:42;;;;;;;6.57;3.25;;;15.60;50.00;;;;;;5084031;28;20416;-66
2021/12/04 14:54:07;;;;;;;5.47;2.22;;;14.60;53.00;;;;;;5086910;28;20039;-66
2021/12/04 14:56:33;;;;;;;4.35;1.83;;;13.70;55.50;;;;;;5072196;28;20024;-66
2021/12/04 14:59:00;;;;;;;10.98;6.95;;;13.10;58.00;;;;;;5086541;28;20028;-66
2021/12/04 15:01:33;;;;;;;10.95;5.90;;;12.60;59.50;;;;;;5083793;28;20028;-65
2021/12/04 15:04:02;;;;;;;51.05;30.13;;;12.10;61.00;;;;;;5081387;28;20023;-66
2021/12/04 15:06:31;;;;;;;18.80;13.10;;;11.90;61.80;;;;;;5073883;28;20032;-65
2021/12/04 15:09:14;;;;;;;6.22;2.60;;;11.70;62.00;;;;;;5087136;28;20107;-65
2021/12/04 15:11:46;;;;;;;14.15;9.20;;;11.50;63.20;;;;;;5087826;28;20108;-66
2021/12/04 15:14:31;;;;;;;16.35;8.02;;;11.20;63.80;;;;;;5086287;28;20032;-65
2021/12/04 15:17:01;;;;;;;5.38;1.13;;;10.90;65.00;;;;;;5075127;28;20037;-65
2021/12/04 15:22:44;;;;;;;9.63;4.60;;;10.50;66.20;;;;;;5075174;28;20278;-65
2021/12/04 15:25:21;;;;;;;4.75;1.60;;;10.20;67.50;;;;;;5078387;28;20028;-65
2021/12/04 15:27:47;;;;;;;6.20;1.92;;;10.10;67.40;;;;;;5082934;28;20025;-65
2021/12/04 15:30:17;;;;;;;10.98;4.72;;;9.90;68.40;;;;;;5071354;28;20020;-65
2021/12/04 15:32:43;;;;;;;7.00;2.22;;;9.70;69.40;;;;;;5086631;28;20081;-65
2021/12/04 15:38:07;;;;;;;8.10;3.10;;;9.50;70.40;;;;;;5074790;28;20045;-65
2021/12/04 15:40:47;;;;;;;3.20;1.02;;;9.40;70.80;;;;;;5081574;28;20375;-65
2021/12/04 15:43:22;;;;;;;5.32;1.77;;;9.20;71.90;;;;;;5079061;28;20119;-65
2021/12/04 15:53:21;;;;;;;7.47;2.30;;;8.80;74.30;;;;;;5085380;28;20085;-65
2021/12/04 15:55:50;;;;;;;5.72;1.40;;;8.80;74.80;;;;;;5075685;28;20033;-65
2021/12/04 15:58:19;;;;;;;6.57;2.15;;;8.70;75.00;;;;;;5077781;28;20024;-65
2021/12/04 16:00:52;;;;;;;16.00;6.68;;;8.70;75.40;;;;;;5078251;28;20030;-65
2021/12/04 16:03:21;;;;;;;13.10;6.97;;;8.70;76.10;;;;;;5084239;28;20376;-65
2021/12/04 16:05:51;;;;;;;7.43;2.17;;;8.70;76.60;;;;;;5074580;28;20031;-65
2021/12/04 16:08:21;;;;;;;5.93;1.88;;;8.70;77.10;;;;;;5090271;28;20075;-65